sensor_id;sensor_type;location;lat;lon;timestamp;P1;durP1;ratioP1;P2;durP2;ratioP2
52057;SDS011;38063;53.210;6.504;2023-07-20T00:01:14;3.67;;;2.45;;
52057;SDS011;38063;53.210;6.504;2023-07-20T00:03:40;6.60;;;3.40;;
52057;SDS011;38063;53.210;6.504;2023-07-20T00:06:06;4.47;;;2.38;;
52057;SDS011;38063;53.210;6.504;2023-07-20T00:08:31;3.35;;;2.63;;
52057;SDS011;38063;53.210;6.504;2023-07-20T00:10:57;2.70;;;2.50;;
52057;SDS011;38063;53.210;6.504;2023-07-20T00:13:23;4.57;;;3.03;;
52057;SDS011;38063;53.210;6.504;2023-07-20T00:15:49;5.03;;;2.58;;
52057;SDS011;38063;53.210;6.504;2023-07-20T00:18:16;2.42;;;2.22;;
52057;SDS011;38063;53.210;6.504;2023-07-20T00:20:42;4.05;;;2.35;;
52057;SDS011;38063;53.210;6.504;2023-07-20T00:23:07;4.40;;;2.78;;
52057;SDS011;38063;53.210;6.504;2023-07-20T00:25:34;3.42;;;2.40;;
52057;SDS011;38063;53.210;6.504;2023-07-20T00:28:00;3.20;;;2.40;;
52057;SDS011;38063;53.210;6.504;2023-07-20T00:30:26;5.50;;;2.67;;
52057;SDS011;38063;53.210;6.504;2023-07-20T00:32:52;3.63;;;2.53;;
52057;SDS011;38063;53.210;6.504;2023-07-20T00:35:17;3.85;;;2.67;;
52057;SDS011;38063;53.210;6.504;2023-07-20T00:37:43;2.90;;;2.60;;
52057;SDS011;38063;53.210;6.504;2023-07-20T00:40:09;4.13;;;3.30;;
52057;SDS011;38063;53.210;6.504;2023-07-20T00:42:35;4.07;;;3.15;;
52057;SDS011;38063;53.210;6.504;2023-07-20T00:45:00;5.22;;;3.30;;
52057;SDS011;38063;53.210;6.504;2023-07-20T00:47:27;6.07;;;3.47;;
52057;SDS011;38063;53.210;6.504;2023-07-20T00:49:53;5.72;;;3.00;;
52057;SDS011;38063;53.210;6.504;2023-07-20T00:52:20;5.32;;;3.40;;
52057;SDS011;38063;53.210;6.504;2023-07-20T00:54:47;6.45;;;3.13;;
52057;SDS011;38063;53.210;6.504;2023-07-20T00:57:14;4.18;;;2.80;;
52057;SDS011;38063;53.210;6.504;2023-07-20T00:59:41;4.13;;;3.10;;
52057;SDS011;38063;53.210;6.504;2023-07-20T01:02:07;5.07;;;3.60;;
52057;SDS011;38063;53.210;6.504;2023-07-20T01:04:32;4.28;;;3.20;;
52057;SDS011;38063;53.210;6.504;2023-07-20T01:08:03;4.15;;;2.83;;
52057;SDS011;38063;53.210;6.504;2023-07-20T01:10:17;5.03;;;3.65;;
52057;SDS011;38063;53.210;6.504;2023-07-20T01:13:04;4.45;;;3.30;;
52057;SDS011;38063;53.210;6.504;2023-07-20T01:15:33;4.18;;;3.63;;
52057;SDS011;38063;53.210;6.504;2023-07-20T01:17:59;5.60;;;3.90;;
52057;SDS011;38063;53.210;6.504;2023-07-20T01:20:26;3.78;;;3.30;;
52057;SDS011;38063;53.210;6.504;2023-07-20T01:31:26;5.40;;;3.60;;
52057;SDS011;38063;53.210;6.504;2023-07-20T01:33:55;6.88;;;4.18;;
52057;SDS011;38063;53.210;6.504;2023-07-20T01:36:23;4.63;;;3.83;;
52057;SDS011;38063;53.210;6.504;2023-07-20T01:38:51;8.15;;;4.15;;
52057;SDS011;38063;53.210;6.504;2023-07-20T01:41:18;8.65;;;3.72;;
52057;SDS011;38063;53.210;6.504;2023-07-20T01:43:44;5.13;;;3.80;;
52057;SDS011;38063;53.210;6.504;2023-07-20T01:46:10;7.30;;;3.72;;
52057;SDS011;38063;53.210;6.504;2023-07-20T01:48:35;8.18;;;4.30;;
52057;SDS011;38063;53.210;6.504;2023-07-20T01:51:01;4.60;;;3.75;;
52057;SDS011;38063;53.210;6.504;2023-07-20T01:53:27;6.50;;;4.25;;
52057;SDS011;38063;53.210;6.504;2023-07-20T01:55:53;5.75;;;3.60;;
52057;SDS011;38063;53.210;6.504;2023-07-20T01:58:19;4.45;;;3.40;;
52057;SDS011;38063;53.210;6.504;2023-07-20T02:00:45;7.28;;;3.97;;
52057;SDS011;38063;53.210;6.504;2023-07-20T02:03:11;7.53;;;3.70;;
52057;SDS011;38063;53.210;6.504;2023-07-20T02:05:37;5.78;;;3.55;;
52057;SDS011;38063;53.210;6.504;2023-07-20T02:08:03;8.57;;;3.45;;
52057;SDS011;38063;53.210;6.504;2023-07-20T02:10:29;4.93;;;3.30;;
52057;SDS011;38063;53.210;6.504;2023-07-20T02:12:55;3.85;;;3.30;;
52057;SDS011;38063;53.210;6.504;2023-07-20T02:15:20;5.30;;;3.90;;
52057;SDS011;38063;53.210;6.504;2023-07-20T02:17:47;4.82;;;4.03;;
52057;SDS011;38063;53.210;6.504;2023-07-20T02:20:12;5.32;;;3.70;;
52057;SDS011;38063;53.210;6.504;2023-07-20T02:22:38;4.70;;;3.97;;
52057;SDS011;38063;53.210;6.504;2023-07-20T02:25:05;4.68;;;4.18;;
52057;SDS011;38063;53.210;6.504;2023-07-20T02:27:32;6.65;;;4.00;;
52057;SDS011;38063;53.210;6.504;2023-07-20T02:29:58;6.05;;;3.50;;
52057;SDS011;38063;53.210;6.504;2023-07-20T02:32:24;4.00;;;3.60;;
52057;SDS011;38063;53.210;6.504;2023-07-20T02:34:50;5.32;;;3.65;;
52057;SDS011;38063;53.210;6.504;2023-07-20T02:37:16;4.68;;;3.70;;
52057;SDS011;38063;53.210;6.504;2023-07-20T02:39:42;4.45;;;3.50;;
52057;SDS011;38063;53.210;6.504;2023-07-20T02:42:08;4.30;;;3.88;;
52057;SDS011;38063;53.210;6.504;2023-07-20T02:44:33;4.40;;;3.55;;
52057;SDS011;38063;53.210;6.504;2023-07-20T02:46:59;4.65;;;3.65;;
52057;SDS011;38063;53.210;6.504;2023-07-20T02:49:25;5.53;;;3.55;;
52057;SDS011;38063;53.210;6.504;2023-07-20T02:51:50;5.25;;;3.30;;
52057;SDS011;38063;53.210;6.504;2023-07-20T02:54:16;4.55;;;3.67;;
52057;SDS011;38063;53.210;6.504;2023-07-20T02:56:41;6.15;;;2.92;;
52057;SDS011;38063;53.210;6.504;2023-07-20T02:59:07;7.25;;;3.65;;
52057;SDS011;38063;53.210;6.504;2023-07-20T03:01:33;4.75;;;3.25;;
52057;SDS011;38063;53.210;6.504;2023-07-20T03:03:59;4.25;;;3.22;;
52057;SDS011;38063;53.210;6.504;2023-07-20T03:06:25;6.10;;;3.10;;
52057;SDS011;38063;53.210;6.504;2023-07-20T03:08:50;3.92;;;3.25;;
52057;SDS011;38063;53.210;6.504;2023-07-20T03:11:18;4.22;;;3.28;;
52057;SDS011;38063;53.210;6.504;2023-07-20T03:13:48;5.35;;;3.20;;
52057;SDS011;38063;53.210;6.504;2023-07-20T03:16:18;5.95;;;3.42;;
52057;SDS011;38063;53.210;6.504;2023-07-20T03:18:44;4.60;;;3.13;;
52057;SDS011;38063;53.210;6.504;2023-07-20T03:21:10;3.15;;;2.85;;
52057;SDS011;38063;53.210;6.504;2023-07-20T03:23:36;4.60;;;3.10;;
52057;SDS011;38063;53.210;6.504;2023-07-20T03:26:03;3.78;;;3.00;;
52057;SDS011;38063;53.210;6.504;2023-07-20T03:28:29;4.10;;;2.90;;
52057;SDS011;38063;53.210;6.504;2023-07-20T03:30:58;3.25;;;2.65;;
52057;SDS011;38063;53.210;6.504;2023-07-20T03:33:27;6.68;;;3.22;;
52057;SDS011;38063;53.210;6.504;2023-07-20T03:35:54;4.97;;;3.15;;
52057;SDS011;38063;53.210;6.504;2023-07-20T03:38:21;5.72;;;3.20;;
52057;SDS011;38063;53.210;6.504;2023-07-20T03:40:54;4.28;;;3.22;;
52057;SDS011;38063;53.210;6.504;2023-07-20T03:43:24;4.80;;;3.05;;
52057;SDS011;38063;53.210;6.504;2023-07-20T03:45:51;4.05;;;3.20;;
52057;SDS011;38063;53.210;6.504;2023-07-20T03:48:23;4.80;;;3.20;;
52057;SDS011;38063;53.210;6.504;2023-07-20T03:50:50;3.35;;;2.85;;
52057;SDS011;38063;53.210;6.504;2023-07-20T03:53:17;3.50;;;3.20;;
52057;SDS011;38063;53.210;6.504;2023-07-20T03:55:49;5.43;;;3.15;;
52057;SDS011;38063;53.210;6.504;2023-07-20T03:58:17;3.42;;;3.08;;
52057;SDS011;38063;53.210;6.504;2023-07-20T04:00:46;4.82;;;2.47;;
52057;SDS011;38063;53.210;6.504;2023-07-20T04:03:16;6.78;;;2.78;;
52057;SDS011;38063;53.210;6.504;2023-07-20T04:05:43;5.18;;;3.40;;
52057;SDS011;38063;53.210;6.504;2023-07-20T04:08:09;4.65;;;2.88;;
52057;SDS011;38063;53.210;6.504;2023-07-20T04:10:38;4.30;;;2.72;;
52057;SDS011;38063;53.210;6.504;2023-07-20T04:13:04;7.90;;;3.00;;
52057;SDS011;38063;53.210;6.504;2023-07-20T04:15:30;4.13;;;2.80;;
52057;SDS011;38063;53.210;6.504;2023-07-20T04:17:56;3.63;;;2.88;;
52057;SDS011;38063;53.210;6.504;2023-07-20T04:20:22;5.10;;;2.78;;
52057;SDS011;38063;53.210;6.504;2023-07-20T04:22:48;3.72;;;2.90;;
52057;SDS011;38063;53.210;6.504;2023-07-20T04:25:14;6.55;;;3.17;;
52057;SDS011;38063;53.210;6.504;2023-07-20T04:27:41;3.03;;;2.72;;
52057;SDS011;38063;53.210;6.504;2023-07-20T04:30:07;5.20;;;3.03;;
52057;SDS011;38063;53.210;6.504;2023-07-20T04:32:34;4.15;;;2.78;;
52057;SDS011;38063;53.210;6.504;2023-07-20T04:35:00;4.80;;;2.83;;
52057;SDS011;38063;53.210;6.504;2023-07-20T04:37:26;7.07;;;2.65;;
52057;SDS011;38063;53.210;6.504;2023-07-20T04:39:52;5.85;;;2.90;;
52057;SDS011;38063;53.210;6.504;2023-07-20T04:42:17;3.05;;;2.40;;
52057;SDS011;38063;53.210;6.504;2023-07-20T04:44:43;4.53;;;3.00;;
52057;SDS011;38063;53.210;6.504;2023-07-20T04:47:09;5.68;;;2.92;;
52057;SDS011;38063;53.210;6.504;2023-07-20T04:49:34;6.10;;;3.10;;
52057;SDS011;38063;53.210;6.504;2023-07-20T04:52:01;5.80;;;2.90;;
52057;SDS011;38063;53.210;6.504;2023-07-20T04:54:27;6.38;;;3.10;;
52057;SDS011;38063;53.210;6.504;2023-07-20T04:56:53;6.10;;;2.88;;
52057;SDS011;38063;53.210;6.504;2023-07-20T04:59:19;4.00;;;3.03;;
52057;SDS011;38063;53.210;6.504;2023-07-20T05:01:45;5.15;;;2.75;;
52057;SDS011;38063;53.210;6.504;2023-07-20T05:04:10;5.28;;;3.20;;
52057;SDS011;38063;53.210;6.504;2023-07-20T05:06:36;3.58;;;2.42;;
52057;SDS011;38063;53.210;6.504;2023-07-20T05:09:04;3.55;;;2.58;;
52057;SDS011;38063;53.210;6.504;2023-07-20T05:11:32;3.65;;;2.40;;
52057;SDS011;38063;53.210;6.504;2023-07-20T05:13:59;6.18;;;2.83;;
52057;SDS011;38063;53.210;6.504;2023-07-20T05:16:25;4.05;;;3.10;;
52057;SDS011;38063;53.210;6.504;2023-07-20T05:18:50;6.97;;;2.90;;
52057;SDS011;38063;53.210;6.504;2023-07-20T05:21:16;4.70;;;2.50;;
52057;SDS011;38063;53.210;6.504;2023-07-20T05:23:42;3.22;;;2.33;;
52057;SDS011;38063;53.210;6.504;2023-07-20T05:26:07;4.32;;;2.55;;
52057;SDS011;38063;53.210;6.504;2023-07-20T05:28:33;5.57;;;2.35;;
52057;SDS011;38063;53.210;6.504;2023-07-20T05:30:59;3.10;;;2.15;;
52057;SDS011;38063;53.210;6.504;2023-07-20T05:33:27;3.38;;;1.92;;
52057;SDS011;38063;53.210;6.504;2023-07-20T05:35:53;3.45;;;3.15;;
52057;SDS011;38063;53.210;6.504;2023-07-20T05:38:18;2.92;;;1.85;;
52057;SDS011;38063;53.210;6.504;2023-07-20T05:40:44;4.93;;;2.15;;
52057;SDS011;38063;53.210;6.504;2023-07-20T05:43:10;8.95;;;3.03;;
52057;SDS011;38063;53.210;6.504;2023-07-20T05:45:36;6.57;;;2.78;;
52057;SDS011;38063;53.210;6.504;2023-07-20T05:48:02;6.53;;;2.58;;
52057;SDS011;38063;53.210;6.504;2023-07-20T05:50:28;3.22;;;2.50;;
52057;SDS011;38063;53.210;6.504;2023-07-20T05:52:54;5.45;;;2.50;;
52057;SDS011;38063;53.210;6.504;2023-07-20T05:55:19;9.57;;;2.25;;
52057;SDS011;38063;53.210;6.504;2023-07-20T05:57:45;4.82;;;2.20;;
52057;SDS011;38063;53.210;6.504;2023-07-20T06:00:13;5.68;;;2.33;;
52057;SDS011;38063;53.210;6.504;2023-07-20T06:02:39;4.90;;;2.38;;
52057;SDS011;38063;53.210;6.504;2023-07-20T06:05:08;5.82;;;2.50;;
52057;SDS011;38063;53.210;6.504;2023-07-20T06:07:37;7.28;;;2.40;;
52057;SDS011;38063;53.210;6.504;2023-07-20T06:10:03;5.90;;;2.38;;
52057;SDS011;38063;53.210;6.504;2023-07-20T06:12:30;5.90;;;1.77;;
52057;SDS011;38063;53.210;6.504;2023-07-20T06:14:57;4.15;;;1.98;;
52057;SDS011;38063;53.210;6.504;2023-07-20T06:17:26;3.85;;;1.60;;
52057;SDS011;38063;53.210;6.504;2023-07-20T06:19:52;6.28;;;1.95;;
52057;SDS011;38063;53.210;6.504;2023-07-20T06:22:17;8.77;;;2.13;;
52057;SDS011;38063;53.210;6.504;2023-07-20T06:24:43;3.25;;;1.45;;
52057;SDS011;38063;53.210;6.504;2023-07-20T06:27:09;4.35;;;1.38;;
52057;SDS011;38063;53.210;6.504;2023-07-20T06:29:34;3.20;;;1.48;;
52057;SDS011;38063;53.210;6.504;2023-07-20T06:32:00;3.75;;;1.40;;
52057;SDS011;38063;53.210;6.504;2023-07-20T06:34:25;2.60;;;1.20;;
52057;SDS011;38063;53.210;6.504;2023-07-20T06:36:51;3.10;;;1.15;;
52057;SDS011;38063;53.210;6.504;2023-07-20T06:39:17;4.63;;;1.48;;
52057;SDS011;38063;53.210;6.504;2023-07-20T06:41:42;4.10;;;1.40;;
52057;SDS011;38063;53.210;6.504;2023-07-20T06:44:08;6.95;;;1.15;;
52057;SDS011;38063;53.210;6.504;2023-07-20T06:46:34;6.13;;;1.30;;
52057;SDS011;38063;53.210;6.504;2023-07-20T06:48:59;3.15;;;1.35;;
52057;SDS011;38063;53.210;6.504;2023-07-20T06:51:25;4.53;;;1.40;;
52057;SDS011;38063;53.210;6.504;2023-07-20T06:53:50;4.10;;;1.10;;
52057;SDS011;38063;53.210;6.504;2023-07-20T06:56:16;3.22;;;1.30;;
52057;SDS011;38063;53.210;6.504;2023-07-20T06:58:42;2.65;;;1.23;;
52057;SDS011;38063;53.210;6.504;2023-07-20T07:01:08;6.65;;;1.33;;
52057;SDS011;38063;53.210;6.504;2023-07-20T07:03:34;3.60;;;1.38;;
52057;SDS011;38063;53.210;6.504;2023-07-20T07:06:00;1.85;;;1.00;;
52057;SDS011;38063;53.210;6.504;2023-07-20T07:08:25;3.42;;;1.52;;
52057;SDS011;38063;53.210;6.504;2023-07-20T07:10:52;5.15;;;1.88;;
52057;SDS011;38063;53.210;6.504;2023-07-20T07:13:18;3.65;;;1.60;;
52057;SDS011;38063;53.210;6.504;2023-07-20T07:15:44;5.93;;;1.70;;
52057;SDS011;38063;53.210;6.504;2023-07-20T07:18:10;6.70;;;1.65;;
52057;SDS011;38063;53.210;6.504;2023-07-20T07:20:36;3.50;;;1.55;;
52057;SDS011;38063;53.210;6.504;2023-07-20T07:23:02;3.47;;;1.60;;
52057;SDS011;38063;53.210;6.504;2023-07-20T07:25:27;3.95;;;1.85;;
52057;SDS011;38063;53.210;6.504;2023-07-20T07:27:53;5.28;;;1.65;;
52057;SDS011;38063;53.210;6.504;2023-07-20T07:30:21;3.47;;;1.58;;
52057;SDS011;38063;53.210;6.504;2023-07-20T07:32:47;4.75;;;1.60;;
52057;SDS011;38063;53.210;6.504;2023-07-20T07:35:12;5.50;;;1.70;;
52057;SDS011;38063;53.210;6.504;2023-07-20T07:37:38;3.08;;;1.40;;
52057;SDS011;38063;53.210;6.504;2023-07-20T07:40:04;6.20;;;1.90;;
52057;SDS011;38063;53.210;6.504;2023-07-20T07:42:31;6.20;;;1.73;;
52057;SDS011;38063;53.210;6.504;2023-07-20T07:44:57;6.72;;;1.80;;
52057;SDS011;38063;53.210;6.504;2023-07-20T07:47:22;4.28;;;1.65;;
52057;SDS011;38063;53.210;6.504;2023-07-20T07:49:48;3.90;;;1.67;;
52057;SDS011;38063;53.210;6.504;2023-07-20T07:52:14;6.97;;;2.05;;
52057;SDS011;38063;53.210;6.504;2023-07-20T07:54:42;4.95;;;1.45;;
52057;SDS011;38063;53.210;6.504;2023-07-20T07:57:08;4.50;;;1.65;;
52057;SDS011;38063;53.210;6.504;2023-07-20T07:59:33;5.38;;;1.70;;
52057;SDS011;38063;53.210;6.504;2023-07-20T08:02:04;5.18;;;1.50;;
52057;SDS011;38063;53.210;6.504;2023-07-20T08:04:30;6.22;;;1.48;;
52057;SDS011;38063;53.210;6.504;2023-07-20T08:06:56;3.85;;;1.17;;
52057;SDS011;38063;53.210;6.504;2023-07-20T08:09:22;5.75;;;1.17;;
52057;SDS011;38063;53.210;6.504;2023-07-20T08:11:48;4.22;;;1.35;;
52057;SDS011;38063;53.210;6.504;2023-07-20T08:14:15;4.30;;;1.35;;
52057;SDS011;38063;53.210;6.504;2023-07-20T08:16:40;1.98;;;1.00;;
52057;SDS011;38063;53.210;6.504;2023-07-20T08:19:06;3.50;;;1.13;;
52057;SDS011;38063;53.210;6.504;2023-07-20T08:21:32;2.70;;;0.95;;
52057;SDS011;38063;53.210;6.504;2023-07-20T08:23:57;6.25;;;1.10;;
52057;SDS011;38063;53.210;6.504;2023-07-20T08:26:23;3.28;;;0.90;;
52057;SDS011;38063;53.210;6.504;2023-07-20T08:28:49;3.25;;;0.90;;
52057;SDS011;38063;53.210;6.504;2023-07-20T08:31:15;2.80;;;0.88;;
52057;SDS011;38063;53.210;6.504;2023-07-20T08:33:40;2.63;;;0.95;;
52057;SDS011;38063;53.210;6.504;2023-07-20T08:36:06;3.05;;;0.80;;
52057;SDS011;38063;53.210;6.504;2023-07-20T08:38:32;3.13;;;0.80;;
52057;SDS011;38063;53.210;6.504;2023-07-20T08:40:58;5.72;;;0.80;;
52057;SDS011;38063;53.210;6.504;2023-07-20T08:43:25;4.85;;;1.00;;
52057;SDS011;38063;53.210;6.504;2023-07-20T08:45:56;4.22;;;0.98;;
52057;SDS011;38063;53.210;6.504;2023-07-20T08:48:22;2.72;;;0.80;;
52057;SDS011;38063;53.210;6.504;2023-07-20T08:50:50;3.10;;;0.65;;
52057;SDS011;38063;53.210;6.504;2023-07-20T08:53:18;2.53;;;0.95;;
52057;SDS011;38063;53.210;6.504;2023-07-20T08:55:44;4.43;;;0.90;;
52057;SDS011;38063;53.210;6.504;2023-07-20T08:58:13;2.60;;;0.93;;
52057;SDS011;38063;53.210;6.504;2023-07-20T09:00:41;2.88;;;0.77;;
52057;SDS011;38063;53.210;6.504;2023-07-20T09:03:07;2.00;;;0.90;;
52057;SDS011;38063;53.210;6.504;2023-07-20T09:05:33;4.10;;;0.93;;
52057;SDS011;38063;53.210;6.504;2023-07-20T09:08:00;2.90;;;0.80;;
52057;SDS011;38063;53.210;6.504;2023-07-20T09:10:28;9.13;;;1.30;;
52057;SDS011;38063;53.210;6.504;2023-07-20T09:12:55;5.38;;;0.75;;
52057;SDS011;38063;53.210;6.504;2023-07-20T09:15:21;4.53;;;0.70;;
52057;SDS011;38063;53.210;6.504;2023-07-20T09:17:48;1.58;;;0.80;;
52057;SDS011;38063;53.210;6.504;2023-07-20T09:20:16;2.45;;;0.90;;
52057;SDS011;38063;53.210;6.504;2023-07-20T09:22:43;2.05;;;0.65;;
52057;SDS011;38063;53.210;6.504;2023-07-20T09:25:16;2.78;;;0.60;;
52057;SDS011;38063;53.210;6.504;2023-07-20T09:27:44;2.50;;;0.68;;
52057;SDS011;38063;53.210;6.504;2023-07-20T09:30:11;3.92;;;0.70;;
52057;SDS011;38063;53.210;6.504;2023-07-20T09:32:48;3.38;;;0.90;;
52057;SDS011;38063;53.210;6.504;2023-07-20T09:40:26;3.70;;;0.70;;
52057;SDS011;38063;53.210;6.504;2023-07-20T09:42:53;2.05;;;0.55;;
52057;SDS011;38063;53.210;6.504;2023-07-20T09:45:35;3.88;;;0.68;;
52057;SDS011;38063;53.210;6.504;2023-07-20T09:48:05;1.40;;;0.75;;
52057;SDS011;38063;53.210;6.504;2023-07-20T09:50:41;4.50;;;0.90;;
52057;SDS011;38063;53.210;6.504;2023-07-20T09:53:13;5.03;;;0.80;;
52057;SDS011;38063;53.210;6.504;2023-07-20T09:55:40;1.75;;;0.57;;
52057;SDS011;38063;53.210;6.504;2023-07-20T09:58:09;1.88;;;1.00;;
52057;SDS011;38063;53.210;6.504;2023-07-20T10:00:36;1.58;;;0.80;;
52057;SDS011;38063;53.210;6.504;2023-07-20T10:03:03;4.70;;;0.88;;
52057;SDS011;38063;53.210;6.504;2023-07-20T10:05:34;2.13;;;0.77;;
52057;SDS011;38063;53.210;6.504;2023-07-20T10:08:05;3.22;;;1.00;;
52057;SDS011;38063;53.210;6.504;2023-07-20T10:10:36;1.35;;;0.60;;
52057;SDS011;38063;53.210;6.504;2023-07-20T10:13:05;3.45;;;0.93;;
52057;SDS011;38063;53.210;6.504;2023-07-20T10:15:36;4.20;;;0.80;;
52057;SDS011;38063;53.210;6.504;2023-07-20T10:18:22;4.10;;;0.85;;
52057;SDS011;38063;53.210;6.504;2023-07-20T10:20:54;2.55;;;0.68;;
52057;SDS011;38063;53.210;6.504;2023-07-20T10:23:21;5.28;;;1.00;;
52057;SDS011;38063;53.210;6.504;2023-07-20T10:25:48;2.67;;;0.73;;
52057;SDS011;38063;53.210;6.504;2023-07-20T10:28:15;3.15;;;0.90;;
52057;SDS011;38063;53.210;6.504;2023-07-20T10:30:41;6.70;;;0.80;;
52057;SDS011;38063;53.210;6.504;2023-07-20T10:33:08;2.72;;;0.70;;
52057;SDS011;38063;53.210;6.504;2023-07-20T10:35:53;2.42;;;0.82;;
52057;SDS011;38063;53.210;6.504;2023-07-20T10:41:20;2.38;;;0.90;;
52057;SDS011;38063;53.210;6.504;2023-07-20T10:43:49;4.40;;;0.90;;
52057;SDS011;38063;53.210;6.504;2023-07-20T10:46:33;2.22;;;0.98;;
52057;SDS011;38063;53.210;6.504;2023-07-20T10:49:08;2.05;;;0.60;;
52057;SDS011;38063;53.210;6.504;2023-07-20T10:51:48;1.98;;;1.02;;
52057;SDS011;38063;53.210;6.504;2023-07-20T10:56:49;4.45;;;0.80;;
52057;SDS011;38063;53.210;6.504;2023-07-20T11:01:51;4.53;;;0.80;;
52057;SDS011;38063;53.210;6.504;2023-07-20T11:04:21;3.67;;;0.90;;
52057;SDS011;38063;53.210;6.504;2023-07-20T11:07:05;3.10;;;1.00;;
52057;SDS011;38063;53.210;6.504;2023-07-20T11:09:35;1.10;;;0.50;;
52057;SDS011;38063;53.210;6.504;2023-07-20T11:12:14;1.75;;;0.82;;
52057;SDS011;38063;53.210;6.504;2023-07-20T11:14:52;1.75;;;0.60;;
52057;SDS011;38063;53.210;6.504;2023-07-20T11:17:19;1.52;;;0.80;;
52057;SDS011;38063;53.210;6.504;2023-07-20T11:19:55;3.00;;;0.93;;
52057;SDS011;38063;53.210;6.504;2023-07-20T11:22:21;1.60;;;0.90;;
52057;SDS011;38063;53.210;6.504;2023-07-20T11:24:47;4.55;;;0.90;;
52057;SDS011;38063;53.210;6.504;2023-07-20T11:27:16;2.00;;;0.60;;
52057;SDS011;38063;53.210;6.504;2023-07-20T11:29:47;1.90;;;0.63;;
52057;SDS011;38063;53.210;6.504;2023-07-20T11:32:19;3.95;;;0.90;;
52057;SDS011;38063;53.210;6.504;2023-07-20T11:34:47;1.30;;;0.82;;
52057;SDS011;38063;53.210;6.504;2023-07-20T11:37:13;2.58;;;0.85;;
52057;SDS011;38063;53.210;6.504;2023-07-20T11:39:39;4.30;;;1.20;;
52057;SDS011;38063;53.210;6.504;2023-07-20T11:42:05;1.73;;;0.70;;
52057;SDS011;38063;53.210;6.504;2023-07-20T11:44:31;2.40;;;0.93;;
52057;SDS011;38063;53.210;6.504;2023-07-20T11:49:34;4.55;;;1.02;;
52057;SDS011;38063;53.210;6.504;2023-07-20T11:52:02;11.40;;;1.00;;
52057;SDS011;38063;53.210;6.504;2023-07-20T11:54:29;3.38;;;0.90;;
52057;SDS011;38063;53.210;6.504;2023-07-20T11:56:55;3.03;;;1.10;;
52057;SDS011;38063;53.210;6.504;2023-07-20T11:59:21;2.53;;;1.30;;
52057;SDS011;38063;53.210;6.504;2023-07-20T12:01:47;2.38;;;1.00;;
52057;SDS011;38063;53.210;6.504;2023-07-20T12:04:12;2.80;;;0.70;;
52057;SDS011;38063;53.210;6.504;2023-07-20T12:06:38;7.60;;;1.30;;
52057;SDS011;38063;53.210;6.504;2023-07-20T12:09:04;4.20;;;1.30;;
52057;SDS011;38063;53.210;6.504;2023-07-20T12:11:32;5.05;;;0.70;;
52057;SDS011;38063;53.210;6.504;2023-07-20T12:14:11;2.60;;;0.80;;
52057;SDS011;38063;53.210;6.504;2023-07-20T12:16:37;3.65;;;0.90;;
52057;SDS011;38063;53.210;6.504;2023-07-20T12:19:04;5.05;;;1.30;;
52057;SDS011;38063;53.210;6.504;2023-07-20T12:21:38;2.03;;;0.57;;
52057;SDS011;38063;53.210;6.504;2023-07-20T12:24:05;2.70;;;0.93;;
52057;SDS011;38063;53.210;6.504;2023-07-20T12:26:32;2.83;;;0.52;;
52057;SDS011;38063;53.210;6.504;2023-07-20T12:28:59;1.75;;;0.52;;
52057;SDS011;38063;53.210;6.504;2023-07-20T12:31:25;3.63;;;0.80;;
52057;SDS011;38063;53.210;6.504;2023-07-20T12:33:52;2.67;;;0.80;;
52057;SDS011;38063;53.210;6.504;2023-07-20T12:36:20;3.22;;;0.88;;
52057;SDS011;38063;53.210;6.504;2023-07-20T12:38:46;1.40;;;0.70;;
52057;SDS011;38063;53.210;6.504;2023-07-20T12:41:12;3.15;;;1.10;;
52057;SDS011;38063;53.210;6.504;2023-07-20T12:43:39;5.32;;;1.08;;
52057;SDS011;38063;53.210;6.504;2023-07-20T12:46:06;2.40;;;0.77;;
52057;SDS011;38063;53.210;6.504;2023-07-20T12:48:32;3.50;;;0.93;;
52057;SDS011;38063;53.210;6.504;2023-07-20T12:50:58;1.90;;;0.93;;
52057;SDS011;38063;53.210;6.504;2023-07-20T12:53:24;4.97;;;1.10;;
52057;SDS011;38063;53.210;6.504;2023-07-20T12:55:49;1.30;;;0.77;;
52057;SDS011;38063;53.210;6.504;2023-07-20T12:58:15;3.80;;;0.82;;
52057;SDS011;38063;53.210;6.504;2023-07-20T13:00:41;1.27;;;0.63;;
52057;SDS011;38063;53.210;6.504;2023-07-20T13:03:07;4.10;;;0.90;;
52057;SDS011;38063;53.210;6.504;2023-07-20T13:05:33;3.78;;;1.23;;
52057;SDS011;38063;53.210;6.504;2023-07-20T13:08:00;3.63;;;0.90;;
52057;SDS011;38063;53.210;6.504;2023-07-20T13:10:26;2.97;;;0.90;;
52057;SDS011;38063;53.210;6.504;2023-07-20T13:12:52;2.28;;;0.80;;
52057;SDS011;38063;53.210;6.504;2023-07-20T13:15:18;2.97;;;1.15;;
52057;SDS011;38063;53.210;6.504;2023-07-20T13:17:44;5.70;;;1.17;;
52057;SDS011;38063;53.210;6.504;2023-07-20T13:20:10;1.33;;;0.98;;
52057;SDS011;38063;53.210;6.504;2023-07-20T13:22:36;4.28;;;1.13;;
52057;SDS011;38063;53.210;6.504;2023-07-20T13:25:03;3.65;;;1.20;;
52057;SDS011;38063;53.210;6.504;2023-07-20T13:27:29;1.92;;;1.05;;
52057;SDS011;38063;53.210;6.504;2023-07-20T13:29:56;2.05;;;0.90;;
52057;SDS011;38063;53.210;6.504;2023-07-20T13:32:23;5.28;;;1.33;;
52057;SDS011;38063;53.210;6.504;2023-07-20T13:34:48;3.10;;;0.90;;
52057;SDS011;38063;53.210;6.504;2023-07-20T13:37:14;2.33;;;0.88;;
52057;SDS011;38063;53.210;6.504;2023-07-20T13:39:41;3.22;;;1.10;;
52057;SDS011;38063;53.210;6.504;2023-07-20T13:42:07;3.17;;;1.48;;
52057;SDS011;38063;53.210;6.504;2023-07-20T13:44:35;5.35;;;1.83;;
52057;SDS011;38063;53.210;6.504;2023-07-20T13:47:00;2.83;;;0.80;;
52057;SDS011;38063;53.210;6.504;2023-07-20T13:49:26;3.88;;;0.80;;
52057;SDS011;38063;53.210;6.504;2023-07-20T13:51:52;6.43;;;0.70;;
52057;SDS011;38063;53.210;6.504;2023-07-20T13:54:18;3.65;;;0.90;;
52057;SDS011;38063;53.210;6.504;2023-07-20T13:56:44;2.45;;;0.98;;
52057;SDS011;38063;53.210;6.504;2023-07-20T13:59:09;1.80;;;0.90;;
52057;SDS011;38063;53.210;6.504;2023-07-20T14:01:35;1.88;;;0.90;;
52057;SDS011;38063;53.210;6.504;2023-07-20T14:04:01;4.07;;;0.75;;
52057;SDS011;38063;53.210;6.504;2023-07-20T14:06:31;3.95;;;1.00;;
52057;SDS011;38063;53.210;6.504;2023-07-20T14:08:58;2.80;;;0.90;;
52057;SDS011;38063;53.210;6.504;2023-07-20T14:11:24;2.15;;;1.15;;
52057;SDS011;38063;53.210;6.504;2023-07-20T14:13:50;5.18;;;0.90;;
52057;SDS011;38063;53.210;6.504;2023-07-20T14:16:18;2.35;;;0.90;;
52057;SDS011;38063;53.210;6.504;2023-07-20T14:18:45;3.13;;;1.20;;
52057;SDS011;38063;53.210;6.504;2023-07-20T14:21:12;2.63;;;0.90;;
52057;SDS011;38063;53.210;6.504;2023-07-20T14:23:38;1.48;;;0.70;;
52057;SDS011;38063;53.210;6.504;2023-07-20T14:26:04;2.88;;;0.80;;
52057;SDS011;38063;53.210;6.504;2023-07-20T14:28:30;2.10;;;0.95;;
52057;SDS011;38063;53.210;6.504;2023-07-20T14:30:57;3.95;;;0.90;;
52057;SDS011;38063;53.210;6.504;2023-07-20T14:33:22;2.92;;;1.00;;
52057;SDS011;38063;53.210;6.504;2023-07-20T14:35:48;3.80;;;1.30;;
52057;SDS011;38063;53.210;6.504;2023-07-20T14:38:14;5.25;;;1.38;;
52057;SDS011;38063;53.210;6.504;2023-07-20T14:40:39;2.70;;;1.48;;
52057;SDS011;38063;53.210;6.504;2023-07-20T14:43:06;3.67;;;1.13;;
52057;SDS011;38063;53.210;6.504;2023-07-20T14:45:32;3.45;;;1.45;;
52057;SDS011;38063;53.210;6.504;2023-07-20T14:47:57;5.05;;;1.20;;
52057;SDS011;38063;53.210;6.504;2023-07-20T14:50:24;5.90;;;1.48;;
52057;SDS011;38063;53.210;6.504;2023-07-20T14:52:49;5.95;;;1.10;;
52057;SDS011;38063;53.210;6.504;2023-07-20T14:55:15;4.00;;;1.90;;
52057;SDS011;38063;53.210;6.504;2023-07-20T14:57:42;3.75;;;1.10;;
52057;SDS011;38063;53.210;6.504;2023-07-20T15:00:08;1.40;;;1.02;;
52057;SDS011;38063;53.210;6.504;2023-07-20T15:02:38;3.50;;;1.20;;
52057;SDS011;38063;53.210;6.504;2023-07-20T15:05:09;4.05;;;1.55;;
52057;SDS011;38063;53.210;6.504;2023-07-20T15:07:35;4.43;;;1.42;;
52057;SDS011;38063;53.210;6.504;2023-07-20T15:10:02;4.78;;;1.45;;
52057;SDS011;38063;53.210;6.504;2023-07-20T15:12:29;3.67;;;1.33;;